Nissho Maru No7 — JH3472 — position and weather

sailwx.info

Track history (hours):
 
Tides and Currents Weather Stations Pressure Air Temp Water Temp Dewpoint Dewpoint Depression Visibility Wind Speed Wind Dir Waves Ship Positions

Nissho Maru No7

Last reported at 2015-May-03 10:31 UTC. Time now 2015-May-03 10:50 UTC.
Position N 34°15' E 135°07'.

Length 73 m; draft 4.8 m.

MMSI: 431200355.

Date/timePositionNaut miles runAvg speedWind from/ knotsBaromVisibWave heightAir tempDewpointWater temp
2015-May-03 10:31N 34°15' E 135°07'0 0.0
2015-May-03 09:31N 34°15' E 135°07'0 0.0
2015-May-03 08:31N 34°15' E 135°07'0 0.0
2015-May-03 07:31N 34°15' E 135°07'0 0.0
2015-May-03 06:31N 34°15' E 135°07'0 0.0
2015-May-03 05:31N 34°15' E 135°07'0 0.0
2015-May-03 04:31N 34°15' E 135°07'0 0.0
2015-May-03 03:31N 34°15' E 135°07'0 0.0
2015-May-03 02:28N 34°15' E 135°07'0 0.0
2015-May-03 01:22N 34°15' E 135°07'0 0.0
2015-May-03 00:31N 34°15' E 135°07'0 0.0
2015-May-02 23:31N 34°15' E 135°07'0 0.0
2015-May-02 22:31N 34°15' E 135°07'0 0.0
2015-May-02 21:31N 34°15' E 135°07'0 0.0
2015-May-02 20:31N 34°15' E 135°07'0 0.0
2015-May-02 19:31N 34°15' E 135°07'0 0.0
2015-May-02 18:31N 34°15' E 135°07'0 0.0
2015-May-02 17:31N 34°15' E 135°07'0 0.0
2015-May-02 16:31N 34°15' E 135°07'0 0.0
2015-May-02 15:31N 34°15' E 135°07'0 0.0
2015-May-02 14:31N 34°15' E 135°07'0 0.0
2015-May-02 13:31N 34°15' E 135°07'0 0.0
2015-May-02 12:22N 34°15' E 135°07'0 0.0
2015-May-02 11:28N 34°15' E 135°07'0 0.0
2015-May-02 10:28N 34°15' E 135°07'0 0.0
2015-May-02 09:28N 34°15' E 135°07'0 0.0
2015-May-02 08:34N 34°15' E 135°07'9 8.6
2015-May-02 07:28N 34°06' E 135°03'174 9.0
2015-May-01 12:05N 34°34' E 138°30'6110.8
2015-May-01 06:24N 34°51' E 139°42'5910.2
2015-May-01 00:33N 35°27' E 140°40'1410.1
2015-Apr-30 23:07N 35°37' E 140°52'10 9.3
2015-Apr-30 22:05N 35°47' E 140°52'510.1
2015-Apr-30 21:33N 35°51' E 140°49'7 7.0
2015-Apr-30 20:33N 35°56' E 140°42'2 0.3
2015-Apr-30 14:28N 35°56' E 140°40'58 1.2
2015-Apr-28 12:16N 36°51' E 141°02'911.0
2015-Apr-28 11:26N 36°42' E 141°02'1011.2
2015-Apr-28 10:33N 36°32' E 141°01'1312.1
2015-Apr-28 09:30N 36°19' E 140°60'1212.1
2015-Apr-28 08:29N 36°07' E 140°58'1111.8
2015-Apr-28 07:33N 35°56' E 140°57'1212.0
2015-Apr-28 06:33N 35°44' E 140°55'1211.9
2015-Apr-28 05:33N 35°34' E 140°47'5312.2
2015-Apr-28 01:13N 34°56' E 140°02'1211.4
2015-Apr-28 00:10N 34°53' E 139°48'710.9
2015-Apr-27 23:33N 34°59' E 139°44'1111.0
2015-Apr-27 22:33N 35°10' E 139°46'1110.7
2015-Apr-27 21:33N 35°20' E 139°43'7 6.9
2015-Apr-27 20:33N 35°23' E 139°50'3 2.9
2015-Apr-27 19:33N 35°22' E 139°53'0 0.0
2015-Apr-27 18:27N 35°22' E 139°53'0 0.0
2015-Apr-27 17:33N 35°22' E 139°53'0 0.0
2015-Apr-27 16:33N 35°22' E 139°53'0 0.0
2015-Apr-27 15:33N 35°22' E 139°53'0 0.0
2015-Apr-27 14:33N 35°22' E 139°53'0 0.0
2015-Apr-27 13:21N 35°22' E 139°53'0 0.0
2015-Apr-27 12:33N 35°22' E 139°53'0 0.0
2015-Apr-27 11:30N 35°22' E 139°53'0 0.0
2015-Apr-27 10:27N 35°22' E 139°53'3 2.9
2015-Apr-27 09:33N 35°23' E 139°51'1010.0
2015-Apr-27 08:34N 35°33' E 139°53'6 5.9
2015-Apr-27 07:29N 35°38' E 139°48'0 0.0
2015-Apr-27 06:29N 35°38' E 139°48'0 0.0
2015-Apr-27 05:32N 35°38' E 139°48'0 0.0
2015-Apr-27 04:32N 35°38' E 139°48'0 0.0
2015-Apr-27 03:32N 35°38' E 139°48'0 0.0
2015-Apr-27 02:32N 35°38' E 139°48'0 0.0
2015-Apr-27 01:32N 35°38' E 139°48'0 0.0
2015-Apr-27 00:32N 35°38' E 139°48'0 0.0
2015-Apr-26 23:23N 35°38' E 139°48'0 0.0
2015-Apr-26 22:30N 35°38' E 139°48'0 0.0
2015-Apr-26 21:30N 35°38' E 139°48'0 0.0
2015-Apr-26 20:30N 35°38' E 139°48'0 0.0
2015-Apr-26 19:30N 35°38' E 139°48'0 0.0
2015-Apr-26 18:30N 35°38' E 139°48'0 0.0
2015-Apr-26 17:30N 35°38' E 139°48'0 0.0
2015-Apr-26 16:24N 35°38' E 139°48'0 0.0
2015-Apr-26 15:30N 35°38' E 139°48'0 0.0
2015-Apr-26 14:30N 35°38' E 139°48'0 0.0
2015-Apr-26 13:30N 35°38' E 139°48'0 0.0
2015-Apr-26 12:30N 35°38' E 139°48'0 0.0
2015-Apr-26 11:30N 35°38' E 139°48'0 0.0
2015-Apr-26 10:30N 35°38' E 139°48'0 0.0
2015-Apr-26 09:33N 35°38' E 139°48'0 0.0
2015-Apr-26 08:30N 35°38' E 139°48'0 0.0
2015-Apr-26 07:30N 35°38' E 139°48'0 0.0
2015-Apr-26 06:24N 35°38' E 139°48'0 0.0
2015-Apr-26 05:24N 35°38' E 139°48'0 0.0
2015-Apr-26 04:30N 35°38' E 139°48'0 0.0
2015-Apr-26 03:18N 35°38' E 139°48'0 0.0
2015-Apr-26 02:30N 35°38' E 139°48'0 0.0
2015-Apr-26 01:33N 35°38' E 139°48'0 0.0
2015-Apr-26 00:33N 35°38' E 139°48'0 0.0
2015-Apr-25 23:18N 35°38' E 139°48'0 0.0
2015-Apr-25 22:33N 35°38' E 139°48'0 0.0
2015-Apr-25 21:33N 35°38' E 139°48'0 0.0
2015-Apr-25 20:30N 35°38' E 139°48'0 0.0
2015-Apr-25 19:12N 35°38' E 139°48'0 0.0
2015-Apr-25 18:30N 35°38' E 139°48'0 0.0
2015-Apr-25 17:24N 35°38' E 139°48'0 0.0
2015-Apr-25 16:24N 35°38' E 139°48'0 0.0
2015-Apr-25 15:30N 35°38' E 139°48'0 0.0
2015-Apr-25 14:24N 35°38' E 139°48'0 0.0
2015-Apr-25 13:33N 35°38' E 139°48'0 0.0
2015-Apr-25 12:33N 35°38' E 139°48'0 0.0
2015-Apr-25 11:30N 35°38' E 139°48'0 0.0
2015-Apr-25 10:21N 35°38' E 139°48'0 0.0
2015-Apr-25 09:33N 35°38' E 139°48'0 0.0
2015-Apr-25 08:31N 35°38' E 139°48'6 5.8
2015-Apr-25 07:33N 35°37' E 139°55'5 4.4
2015-Apr-25 06:28N 35°41' E 139°57'0 0.0
2015-Apr-25 05:29N 35°41' E 139°57'5 5.6
2015-Apr-25 04:33N 35°36' E 139°56'9 7.9
2015-Apr-25 03:28N 35°29' E 139°49'1 0.6
2015-Apr-25 02:33N 35°29' E 139°49'1110.5
2015-Apr-25 01:33N 35°19' E 139°44'10 9.9
2015-Apr-25 00:34N 35°09' E 139°46'1211.2
2015-Apr-24 23:30N 34°57' E 139°44'11 9.4
2015-Apr-24 22:17N 34°54' E 139°57'811.0
2015-Apr-24 21:33N 34°58' E 140°06'4010.0
2015-Apr-24 17:32N 35°26' E 140°41'  
Track history (hours):
 
Tides and Currents Weather Stations Pressure Air Temp Water Temp Dewpoint Dewpoint Depression Visibility Wind Speed Wind Dir Waves Ship Positions

Nissho Maru No7

Last reported at 2015-May-03 10:31 UTC. Time now 2015-May-03 10:50 UTC.
Position N 34°15' E 135°07'.

Length 73 m; draft 4.8 m.

MMSI: 431200355.

Date/timePositionNaut miles runAvg speedWind from/ knotsBaromVisibWave heightAir tempDewpointWater temp
2015-May-03 10:31N 34°15' E 135°07'0 0.0
2015-May-03 09:31N 34°15' E 135°07'0 0.0
2015-May-03 08:31N 34°15' E 135°07'0 0.0
2015-May-03 07:31N 34°15' E 135°07'0 0.0
2015-May-03 06:31N 34°15' E 135°07'0 0.0
2015-May-03 05:31N 34°15' E 135°07'0 0.0
2015-May-03 04:31N 34°15' E 135°07'0 0.0
2015-May-03 03:31N 34°15' E 135°07'0 0.0
2015-May-03 02:28N 34°15' E 135°07'0 0.0
2015-May-03 01:22N 34°15' E 135°07'0 0.0
2015-May-03 00:31N 34°15' E 135°07'0 0.0
2015-May-02 23:31N 34°15' E 135°07'0 0.0
2015-May-02 22:31N 34°15' E 135°07'0 0.0
2015-May-02 21:31N 34°15' E 135°07'0 0.0
2015-May-02 20:31N 34°15' E 135°07'0 0.0
2015-May-02 19:31N 34°15' E 135°07'0 0.0
2015-May-02 18:31N 34°15' E 135°07'0 0.0
2015-May-02 17:31N 34°15' E 135°07'0 0.0
2015-May-02 16:31N 34°15' E 135°07'0 0.0
2015-May-02 15:31N 34°15' E 135°07'0 0.0
2015-May-02 14:31N 34°15' E 135°07'0 0.0
2015-May-02 13:31N 34°15' E 135°07'0 0.0
2015-May-02 12:22N 34°15' E 135°07'0 0.0
2015-May-02 11:28N 34°15' E 135°07'0 0.0
2015-May-02 10:28N 34°15' E 135°07'0 0.0
2015-May-02 09:28N 34°15' E 135°07'0 0.0
2015-May-02 08:34N 34°15' E 135°07'9 8.6
2015-May-02 07:28N 34°06' E 135°03'174 9.0
2015-May-01 12:05N 34°34' E 138°30'6110.8
2015-May-01 06:24N 34°51' E 139°42'5910.2
2015-May-01 00:33N 35°27' E 140°40'1410.1
2015-Apr-30 23:07N 35°37' E 140°52'10 9.3
2015-Apr-30 22:05N 35°47' E 140°52'510.1
2015-Apr-30 21:33N 35°51' E 140°49'7 7.0
2015-Apr-30 20:33N 35°56' E 140°42'2 0.3
2015-Apr-30 14:28N 35°56' E 140°40'58 1.2
2015-Apr-28 12:16N 36°51' E 141°02'911.0
2015-Apr-28 11:26N 36°42' E 141°02'1011.2
2015-Apr-28 10:33N 36°32' E 141°01'1312.1
2015-Apr-28 09:30N 36°19' E 140°60'1212.1
2015-Apr-28 08:29N 36°07' E 140°58'1111.8
2015-Apr-28 07:33N 35°56' E 140°57'1212.0
2015-Apr-28 06:33N 35°44' E 140°55'1211.9
2015-Apr-28 05:33N 35°34' E 140°47'5312.2
2015-Apr-28 01:13N 34°56' E 140°02'1211.4
2015-Apr-28 00:10N 34°53' E 139°48'710.9
2015-Apr-27 23:33N 34°59' E 139°44'1111.0
2015-Apr-27 22:33N 35°10' E 139°46'1110.7
2015-Apr-27 21:33N 35°20' E 139°43'7 6.9
2015-Apr-27 20:33N 35°23' E 139°50'3 2.9
2015-Apr-27 19:33N 35°22' E 139°53'0 0.0
2015-Apr-27 18:27N 35°22' E 139°53'0 0.0
2015-Apr-27 17:33N 35°22' E 139°53'0 0.0
2015-Apr-27 16:33N 35°22' E 139°53'0 0.0
2015-Apr-27 15:33N 35°22' E 139°53'0 0.0
2015-Apr-27 14:33N 35°22' E 139°53'0 0.0
2015-Apr-27 13:21N 35°22' E 139°53'0 0.0
2015-Apr-27 12:33N 35°22' E 139°53'0 0.0
2015-Apr-27 11:30N 35°22' E 139°53'0 0.0
2015-Apr-27 10:27N 35°22' E 139°53'3 2.9
2015-Apr-27 09:33N 35°23' E 139°51'1010.0
2015-Apr-27 08:34N 35°33' E 139°53'6 5.9
2015-Apr-27 07:29N 35°38' E 139°48'0 0.0
2015-Apr-27 06:29N 35°38' E 139°48'0 0.0
2015-Apr-27 05:32N 35°38' E 139°48'0 0.0
2015-Apr-27 04:32N 35°38' E 139°48'0 0.0
2015-Apr-27 03:32N 35°38' E 139°48'0 0.0
2015-Apr-27 02:32N 35°38' E 139°48'0 0.0
2015-Apr-27 01:32N 35°38' E 139°48'0 0.0
2015-Apr-27 00:32N 35°38' E 139°48'0 0.0
2015-Apr-26 23:23N 35°38' E 139°48'0 0.0
2015-Apr-26 22:30N 35°38' E 139°48'0 0.0
2015-Apr-26 21:30N 35°38' E 139°48'0 0.0
2015-Apr-26 20:30N 35°38' E 139°48'0 0.0
2015-Apr-26 19:30N 35°38' E 139°48'0 0.0
2015-Apr-26 18:30N 35°38' E 139°48'0 0.0
2015-Apr-26 17:30N 35°38' E 139°48'0 0.0
2015-Apr-26 16:24N 35°38' E 139°48'0 0.0
2015-Apr-26 15:30N 35°38' E 139°48'0 0.0
2015-Apr-26 14:30N 35°38' E 139°48'0 0.0
2015-Apr-26 13:30N 35°38' E 139°48'0 0.0
2015-Apr-26 12:30N 35°38' E 139°48'0 0.0
2015-Apr-26 11:30N 35°38' E 139°48'0 0.0
2015-Apr-26 10:30N 35°38' E 139°48'0 0.0
2015-Apr-26 09:33N 35°38' E 139°48'0 0.0
2015-Apr-26 08:30N 35°38' E 139°48'0 0.0
2015-Apr-26 07:30N 35°38' E 139°48'0 0.0
2015-Apr-26 06:24N 35°38' E 139°48'0 0.0
2015-Apr-26 05:24N 35°38' E 139°48'0 0.0
2015-Apr-26 04:30N 35°38' E 139°48'0 0.0
2015-Apr-26 03:18N 35°38' E 139°48'0 0.0
2015-Apr-26 02:30N 35°38' E 139°48'0 0.0
2015-Apr-26 01:33N 35°38' E 139°48'0 0.0
2015-Apr-26 00:33N 35°38' E 139°48'0 0.0
2015-Apr-25 23:18N 35°38' E 139°48'0 0.0
2015-Apr-25 22:33N 35°38' E 139°48'0 0.0
2015-Apr-25 21:33N 35°38' E 139°48'0 0.0
2015-Apr-25 20:30N 35°38' E 139°48'0 0.0
2015-Apr-25 19:12N 35°38' E 139°48'0 0.0
2015-Apr-25 18:30N 35°38' E 139°48'0 0.0
2015-Apr-25 17:24N 35°38' E 139°48'0 0.0
2015-Apr-25 16:24N 35°38' E 139°48'0 0.0
2015-Apr-25 15:30N 35°38' E 139°48'0 0.0
2015-Apr-25 14:24N 35°38' E 139°48'0 0.0
2015-Apr-25 13:33N 35°38' E 139°48'0 0.0
2015-Apr-25 12:33N 35°38' E 139°48'0 0.0
2015-Apr-25 11:30N 35°38' E 139°48'0 0.0
2015-Apr-25 10:21N 35°38' E 139°48'0 0.0
2015-Apr-25 09:33N 35°38' E 139°48'0 0.0
2015-Apr-25 08:31N 35°38' E 139°48'6 5.8
2015-Apr-25 07:33N 35°37' E 139°55'5 4.4
2015-Apr-25 06:28N 35°41' E 139°57'0 0.0
2015-Apr-25 05:29N 35°41' E 139°57'5 5.6
2015-Apr-25 04:33N 35°36' E 139°56'9 7.9
2015-Apr-25 03:28N 35°29' E 139°49'1 0.6
2015-Apr-25 02:33N 35°29' E 139°49'1110.5
2015-Apr-25 01:33N 35°19' E 139°44'10 9.9
2015-Apr-25 00:34N 35°09' E 139°46'1211.2
2015-Apr-24 23:30N 34°57' E 139°44'11 9.4
2015-Apr-24 22:17N 34°54' E 139°57'811.0
2015-Apr-24 21:33N 34°58' E 140°06'4010.0
2015-Apr-24 17:32N 35°26' E 140°41'  

Dump ship's entire track history